Time;durP1;ratioP1;P1;durP2;ratioP2;P2;SDS_P1;SDS_P2;PMS_P1;PMS_P2;Temp;Humidity;BMP_temperature;BMP_pressure;BME280_temperature;BME280_humidity;BME280_pressure;Samples;Min_cycle;Max_cycle;Signal;HPM_P1;HPM_P2
2022/04/12 00:00:19;;;;;;;13.27;11.13;;;8.00;99.90;;;;;;4966961;28;20457;-72
2022/04/12 00:02:45;;;;;;;17.10;11.10;;;8.00;99.90;;;;;;4967151;28;20365;-72
2022/04/12 00:05:11;;;;;;;11.25;10.00;;;7.90;99.90;;;;;;4965131;28;20101;-72
2022/04/12 00:07:38;;;;;;;12.82;10.25;;;8.00;99.90;;;;;;4966833;28;20070;-71
2022/04/12 00:10:04;;;;;;;10.70;9.57;;;8.00;99.90;;;;;;4962765;28;20230;-71
2022/04/12 00:12:30;;;;;;;13.77;11.38;;;8.00;99.90;;;;;;4964791;28;20039;-71
2022/04/12 00:14:55;;;;;;;13.48;9.77;;;8.00;99.90;;;;;;4964224;28;20042;-71
2022/04/12 00:20:06;;;;;;;14.48;11.07;;;7.90;99.90;;;;;;4963278;28;20047;-72
2022/04/12 00:22:32;;;;;;;13.02;10.65;;;7.90;99.90;;;;;;4966808;28;20034;-71
2022/04/12 00:25:00;;;;;;;17.65;11.45;;;7.90;99.90;;;;;;4964227;28;20113;-72
2022/04/12 00:27:26;;;;;;;12.75;11.45;;;7.80;99.90;;;;;;4965663;28;20054;-72
2022/04/12 00:29:53;;;;;;;12.43;11.23;;;7.80;99.90;;;;;;4966642;28;20043;-71
2022/04/12 00:32:18;;;;;;;13.65;11.20;;;7.70;99.90;;;;;;4968424;28;20039;-70
2022/04/12 00:34:44;;;;;;;16.27;12.43;;;7.70;99.90;;;;;;4970259;28;20047;-72
2022/04/12 00:37:09;;;;;;;12.65;11.07;;;7.70;99.90;;;;;;4970937;28;20142;-71
2022/04/12 00:39:37;;;;;;;15.45;11.18;;;7.70;99.90;;;;;;4965833;28;20073;-72
2022/04/12 00:42:03;;;;;;;18.45;10.80;;;7.70;99.90;;;;;;4968792;28;20077;-72
2022/04/12 00:44:29;;;;;;;11.40;10.20;;;7.70;99.90;;;;;;4968083;28;20050;-72
2022/04/12 00:46:55;;;;;;;12.77;10.93;;;7.60;99.90;;;;;;4985357;28;20038;-72
2022/04/12 00:49:23;;;;;;;13.68;10.73;;;7.70;99.90;;;;;;4951907;28;20038;-72
2022/04/12 00:51:49;;;;;;;12.77;10.98;;;7.60;99.90;;;;;;4986086;28;20081;-70
2022/04/12 00:54:19;;;;;;;13.55;11.13;;;7.60;99.90;;;;;;4971139;28;20043;-72
2022/04/12 00:56:48;;;;;;;13.38;10.95;;;7.60;99.90;;;;;;4983091;28;20035;-72
2022/04/12 00:59:14;;;;;;;15.65;11.27;;;7.60;99.90;;;;;;4968288;28;20053;-72
2022/04/12 01:01:40;;;;;;;14.43;10.68;;;7.60;99.90;;;;;;4970702;28;20047;-72
2022/04/12 01:04:05;;;;;;;12.32;11.13;;;7.60;99.90;;;;;;4970578;28;21706;-72
2022/04/12 01:06:31;;;;;;;14.18;11.05;;;7.60;99.90;;;;;;4967685;28;20031;-71
2022/04/12 01:08:56;;;;;;;14.65;10.82;;;7.50;99.90;;;;;;4967075;28;20114;-70
2022/04/12 01:11:22;;;;;;;14.35;10.60;;;7.60;99.90;;;;;;4981671;28;20042;-72
2022/04/12 01:13:48;;;;;;;13.30;10.15;;;7.60;99.90;;;;;;4965544;28;20122;-71
2022/04/12 01:16:13;;;;;;;14.32;11.00;;;7.50;99.90;;;;;;4967217;28;20046;-72
2022/04/12 01:18:40;;;;;;;11.90;10.27;;;7.50;99.90;;;;;;4968727;28;20374;-72
2022/04/12 01:21:06;;;;;;;12.00;10.32;;;7.50;99.90;;;;;;4969519;28;20030;-71
2022/04/12 01:23:39;;;;;;;12.27;11.00;;;7.50;99.90;;;;;;4967241;28;20159;-72
2022/04/12 01:26:06;;;;;;;13.43;10.18;;;7.50;99.90;;;;;;4969069;28;20049;-72
2022/04/12 01:28:32;;;;;;;13.65;10.18;;;7.60;99.90;;;;;;4966414;28;20050;-72
2022/04/12 01:30:57;;;;;;;16.05;9.73;;;7.50;99.90;;;;;;4968624;28;20167;-72
2022/04/12 01:33:23;;;;;;;12.55;10.25;;;7.50;99.90;;;;;;4966229;28;20493;-70
2022/04/12 01:35:48;;;;;;;14.23;9.85;;;7.50;99.90;;;;;;4968494;28;20046;-72
2022/04/12 01:38:14;;;;;;;14.18;10.18;;;7.60;99.90;;;;;;4970124;28;20054;-71
2022/04/12 01:40:39;;;;;;;14.30;11.48;;;7.50;99.90;;;;;;4969150;28;20049;-72
2022/04/12 01:43:05;;;;;;;14.15;10.13;;;7.50;99.90;;;;;;4967090;28;20035;-72
2022/04/12 01:45:30;;;;;;;13.90;10.05;;;7.50;99.90;;;;;;4967775;28;20093;-71
2022/04/12 01:47:56;;;;;;;10.75;9.68;;;7.50;99.90;;;;;;4982505;28;20039;-71
2022/04/12 01:50:22;;;;;;;11.48;9.50;;;7.40;99.90;;;;;;4969634;28;20045;-72
2022/04/12 01:52:48;;;;;;;11.38;9.63;;;7.50;99.90;;;;;;4964821;28;20053;-72
2022/04/12 01:55:14;;;;;;;10.13;9.02;;;7.40;99.90;;;;;;4967370;28;20082;-72
2022/04/12 01:57:40;;;;;;;13.90;10.43;;;8.20;99.90;;;;;;4967466;28;20058;-72
2022/04/12 02:00:07;;;;;;;11.85;9.73;;;7.40;99.90;;;;;;4966848;28;20042;-71
2022/04/12 02:02:33;;;;;;;10.35;9.13;;;7.40;99.90;;;;;;4967632;28;20058;-72
2022/04/12 02:04:58;;;;;;;14.38;9.90;;;7.40;99.90;;;;;;4968124;28;20038;-71
2022/04/12 02:07:24;;;;;;;11.05;9.43;;;7.30;99.90;;;;;;4970202;28;20042;-72
2022/04/12 02:09:49;;;;;;;10.52;9.52;;;7.30;99.90;;;;;;4965485;28;20101;-71
2022/04/12 02:12:15;;;;;;;11.80;9.63;;;7.30;99.90;;;;;;4966905;28;20042;-71
2022/04/12 02:14:41;;;;;;;11.82;9.30;;;7.20;99.90;;;;;;4966878;28;20046;-71
2022/04/12 02:17:06;;;;;;;12.88;9.50;;;7.20;99.90;;;;;;4966507;28;20097;-73
2022/04/12 02:19:32;;;;;;;11.77;9.45;;;7.30;99.90;;;;;;4967807;28;20034;-70
2022/04/12 02:21:57;;;;;;;14.35;9.10;;;7.30;99.90;;;;;;4967661;28;20050;-72
2022/04/12 02:24:23;;;;;;;11.60;9.02;;;7.30;99.90;;;;;;4966978;28;20047;-70
2022/04/12 02:26:49;;;;;;;12.55;9.57;;;7.30;99.90;;;;;;4968668;28;20050;-71
2022/04/12 02:29:14;;;;;;;11.57;8.23;;;7.30;99.90;;;;;;4966104;28;20039;-72
2022/04/12 02:31:41;;;;;;;11.85;8.48;;;7.40;99.90;;;;;;4964918;28;20043;-71
2022/04/12 02:34:07;;;;;;;11.77;10.07;;;7.40;99.90;;;;;;4968310;28;20045;-71
2022/04/12 02:36:33;;;;;;;12.40;8.55;;;7.30;99.90;;;;;;4967187;28;20661;-71
2022/04/12 02:38:58;;;;;;;11.93;9.88;;;7.30;99.90;;;;;;4949432;28;20041;-71
2022/04/12 02:41:24;;;;;;;10.45;8.35;;;7.30;99.90;;;;;;4967146;28;20099;-71
2022/04/12 02:43:49;;;;;;;12.25;8.70;;;7.20;99.90;;;;;;4964688;28;20039;-71
2022/04/12 02:46:15;;;;;;;11.48;8.52;;;7.20;99.90;;;;;;4982771;28;20081;-71
2022/04/12 02:48:41;;;;;;;14.52;9.52;;;7.20;99.90;;;;;;4983124;28;20043;-71
2022/04/12 02:51:06;;;;;;;11.43;9.38;;;7.20;99.90;;;;;;4965460;28;20745;-71
2022/04/12 02:53:32;;;;;;;10.10;8.93;;;7.20;99.90;;;;;;4966290;28;20113;-72
2022/04/12 02:55:58;;;;;;;11.57;9.20;;;7.20;99.90;;;;;;4965989;28;20050;-71
2022/04/12 02:58:23;;;;;;;12.00;9.27;;;7.10;99.90;;;;;;4966341;28;20046;-71
2022/04/12 03:00:49;;;;;;;10.45;9.35;;;7.10;99.90;;;;;;4965333;28;20053;-71
2022/04/12 03:03:14;;;;;;;14.68;9.85;;;7.10;99.90;;;;;;4967838;28;20046;-72
2022/04/12 03:05:40;;;;;;;13.75;9.95;;;7.00;99.90;;;;;;4966167;28;20133;-71
2022/04/12 03:08:06;;;;;;;10.75;9.23;;;7.10;99.90;;;;;;4967647;28;20412;-71
2022/04/12 03:10:31;;;;;;;10.90;9.70;;;6.90;99.90;;;;;;4964837;28;20042;-71
2022/04/12 03:12:57;;;;;;;10.75;9.25;;;6.90;99.90;;;;;;4963426;28;20058;-71
2022/04/12 03:15:23;;;;;;;13.02;9.65;;;6.80;99.90;;;;;;4966894;28;20050;-71
2022/04/12 03:17:48;;;;;;;14.93;9.85;;;6.80;99.90;;;;;;4966159;28;20512;-72
2022/04/12 03:20:14;;;;;;;12.45;9.15;;;6.70;99.90;;;;;;4966379;28;20194;-71
2022/04/12 03:22:41;;;;;;;12.77;9.40;;;6.70;99.90;;;;;;4964735;28;20154;-71
2022/04/12 03:25:10;;;;;;;12.18;9.07;;;6.60;99.90;;;;;;4962560;28;20055;-71
2022/04/12 03:27:36;;;;;;;9.68;8.65;;;6.70;99.90;;;;;;4965435;28;20401;-71
2022/04/12 03:30:04;;;;;;;11.35;10.07;;;6.60;99.90;;;;;;4964461;28;20038;-71
2022/04/12 03:32:30;;;;;;;9.63;8.63;;;6.60;99.90;;;;;;4965404;28;20493;-71
2022/04/12 03:34:55;;;;;;;12.27;9.50;;;6.60;99.90;;;;;;4964212;28;20097;-71
2022/04/12 03:37:21;;;;;;;13.52;9.05;;;6.60;99.90;;;;;;4965475;28;20059;-71
2022/04/12 03:39:47;;;;;;;10.20;8.68;;;6.60;99.90;;;;;;4964461;28;20417;-71
2022/04/12 03:42:14;;;;;;;11.18;9.23;;;6.60;99.90;;;;;;4966213;28;20043;-72
2022/04/12 03:44:40;;;;;;;11.65;9.63;;;6.60;99.90;;;;;;4968097;28;20054;-71
2022/04/12 03:47:07;;;;;;;11.38;9.50;;;6.60;99.90;;;;;;4967712;28;20043;-71
2022/04/12 03:49:33;;;;;;;11.88;9.43;;;6.60;99.90;;;;;;4966641;28;20441;-71
2022/04/12 03:51:59;;;;;;;13.98;9.73;;;6.50;99.90;;;;;;4966360;28;20041;-72
2022/04/12 03:54:24;;;;;;;10.13;8.93;;;6.50;99.90;;;;;;4963541;28;20401;-71
2022/04/12 03:56:50;;;;;;;12.07;9.23;;;6.60;99.90;;;;;;4966702;28;20054;-71
2022/04/12 03:59:16;;;;;;;10.38;9.25;;;6.50;99.90;;;;;;4968046;28;20104;-71
2022/04/12 04:01:42;;;;;;;11.63;8.70;;;6.60;99.90;;;;;;4980307;28;21527;-71
2022/04/12 04:04:09;;;;;;;13.48;9.23;;;6.50;99.90;;;;;;4967924;28;20035;-72
2022/04/12 04:06:35;;;;;;;12.02;9.13;;;6.50;99.90;;;;;;4983751;28;20066;-71
2022/04/12 04:09:01;;;;;;;13.15;8.38;;;6.50;99.90;;;;;;4968576;28;20400;-71
2022/04/12 04:11:26;;;;;;;12.68;8.73;;;6.50;99.90;;;;;;4968135;28;20530;-72
2022/04/12 04:13:52;;;;;;;12.80;8.57;;;6.50;99.90;;;;;;4970947;28;20481;-72
2022/04/12 04:16:18;;;;;;;10.60;8.32;;;6.50;99.90;;;;;;4969488;28;20074;-71
2022/04/12 04:18:44;;;;;;;10.48;8.43;;;6.50;99.90;;;;;;4970940;28;20065;-71
2022/04/12 04:21:09;;;;;;;9.88;8.88;;;6.50;99.90;;;;;;4969516;28;20043;-71
2022/04/12 04:23:35;;;;;;;10.18;8.90;;;6.50;99.90;;;;;;4969265;28;20048;-72
2022/04/12 04:26:01;;;;;;;16.27;8.98;;;6.50;99.90;;;;;;4970069;28;20042;-72
2022/04/12 04:28:29;;;;;;;12.30;9.18;;;6.50;99.90;;;;;;4986550;28;20046;-71
2022/04/12 04:30:56;;;;;;;15.52;8.77;;;6.50;99.90;;;;;;4968890;28;20537;-72
2022/04/12 04:33:22;;;;;;;15.68;9.18;;;6.50;99.90;;;;;;4962966;28;20448;-71
2022/04/12 04:35:49;;;;;;;9.88;8.75;;;6.50;99.90;;;;;;4968784;28;20407;-72
2022/04/12 04:38:15;;;;;;;9.63;8.63;;;6.50;99.90;;;;;;4967141;28;20424;-72
2022/04/12 04:40:41;;;;;;;13.07;8.35;;;6.50;99.90;;;;;;4969848;28;20384;-72
2022/04/12 04:43:07;;;;;;;12.93;8.43;;;6.50;99.90;;;;;;4970240;28;20366;-71
2022/04/12 04:45:34;;;;;;;16.55;9.40;;;6.60;99.90;;;;;;4970020;28;20398;-71
2022/04/12 04:48:02;;;;;;;10.55;9.45;;;6.50;99.90;;;;;;4966125;28;20027;-72
2022/04/12 04:50:30;;;;;;;10.57;8.77;;;6.50;99.90;;;;;;4968510;28;20042;-72
2022/04/12 04:52:56;;;;;;;12.90;10.10;;;6.40;99.90;;;;;;4967787;28;20074;-72
2022/04/12 04:55:23;;;;;;;12.55;9.02;;;6.40;99.90;;;;;;4968162;28;20146;-71
2022/04/12 04:57:52;;;;;;;11.48;8.98;;;6.40;99.90;;;;;;4967845;28;20050;-71
2022/04/12 05:00:18;;;;;;;11.95;8.85;;;6.30;99.90;;;;;;4964177;28;20047;-71
2022/04/12 05:02:49;;;;;;;12.07;9.38;;;6.30;99.90;;;;;;4968901;28;20042;-71
2022/04/12 05:05:15;;;;;;;16.55;9.93;;;6.30;99.90;;;;;;4967554;28;20037;-72
2022/04/12 05:07:44;;;;;;;10.77;9.35;;;6.30;99.90;;;;;;4969414;28;20058;-71
2022/04/12 05:10:15;;;;;;;10.88;9.30;;;6.30;99.90;;;;;;4967448;28;20134;-71
2022/04/12 05:12:41;;;;;;;12.07;8.50;;;6.40;99.90;;;;;;4971234;28;20031;-71
2022/04/12 05:15:07;;;;;;;11.07;8.68;;;6.40;99.90;;;;;;4968737;28;20057;-71
2022/04/12 05:17:32;;;;;;;9.43;8.43;;;6.40;99.90;;;;;;4963005;28;20046;-71
2022/04/12 05:19:58;;;;;;;14.25;8.55;;;6.40;99.90;;;;;;4970963;28;20732;-71
2022/04/12 05:22:25;;;;;;;14.65;8.90;;;6.50;99.90;;;;;;4967549;28;20047;-71
2022/04/12 05:24:52;;;;;;;12.48;9.43;;;6.60;99.90;;;;;;4968274;28;20049;-70
2022/04/12 05:27:17;;;;;;;12.10;9.32;;;6.70;99.90;;;;;;4967803;28;20046;-70
2022/04/12 05:29:43;;;;;;;11.20;8.45;;;6.80;99.90;;;;;;4967017;28;20477;-71
2022/04/12 05:32:10;;;;;;;11.25;8.90;;;7.00;99.90;;;;;;4968205;28;20098;-71
2022/04/12 05:34:43;;;;;;;10.25;7.53;;;7.10;99.90;;;;;;4967873;28;20035;-71
2022/04/12 05:37:09;;;;;;;9.85;8.80;;;7.20;99.90;;;;;;4966391;28;20157;-71
2022/04/12 05:39:35;;;;;;;11.15;9.02;;;7.40;99.90;;;;;;4965348;28;20133;-70
2022/04/12 05:42:01;;;;;;;9.60;7.45;;;7.80;99.90;;;;;;4968178;28;20133;-71
2022/04/12 05:44:28;;;;;;;12.98;8.85;;;9.40;99.90;;;;;;4983350;28;20485;-71
2022/04/12 05:46:54;;;;;;;9.43;7.55;;;9.20;99.90;;;;;;4968472;28;20034;-71
2022/04/12 05:49:20;;;;;;;9.95;7.75;;;9.50;99.90;;;;;;4967567;28;20058;-70
2022/04/12 05:51:46;;;;;;;8.82;7.85;;;9.50;99.90;;;;;;4964782;28;20062;-70
2022/04/12 05:54:12;;;;;;;11.98;7.75;;;9.30;99.90;;;;;;4966166;28;20031;-71
2022/04/12 05:56:37;;;;;;;10.07;7.55;;;9.20;99.90;;;;;;4966875;28;20047;-70
2022/04/12 05:59:06;;;;;;;11.23;8.13;;;9.20;99.90;;;;;;4982561;28;20046;-70
2022/04/12 06:01:31;;;;;;;11.10;7.75;;;9.30;99.90;;;;;;4967019;28;20055;-70
2022/04/12 06:03:57;;;;;;;12.50;7.85;;;9.20;99.90;;;;;;4971164;28;20041;-70
2022/04/12 06:06:23;;;;;;;11.48;7.65;;;9.00;99.90;;;;;;4967881;28;20688;-70
2022/04/12 06:08:49;;;;;;;9.20;7.57;;;8.80;99.90;;;;;;4962072;28;20066;-70
2022/04/12 06:11:15;;;;;;;8.93;8.02;;;8.60;99.90;;;;;;4961957;28;20057;-70
2022/04/12 06:13:41;;;;;;;9.63;8.07;;;8.50;99.90;;;;;;4945110;28;20047;-70
2022/04/12 06:16:06;;;;;;;9.95;7.80;;;8.50;99.90;;;;;;4957344;28;20054;-70
2022/04/12 06:18:32;;;;;;;10.27;7.82;;;8.50;99.90;;;;;;4957283;28;20044;-70
2022/04/12 06:20:58;;;;;;;9.85;7.35;;;8.60;99.90;;;;;;4954533;28;20056;-70
2022/04/12 06:23:24;;;;;;;10.10;7.78;;;8.70;99.90;;;;;;4958549;28;20042;-70
2022/04/12 06:25:49;;;;;;;14.15;8.57;;;8.80;99.90;;;;;;4956421;28;20083;-71
2022/04/12 06:28:15;;;;;;;11.32;8.07;;;8.80;99.90;;;;;;4958904;28;20039;-72
2022/04/12 06:30:41;;;;;;;8.32;7.13;;;8.80;99.90;;;;;;4956710;28;20078;-71
2022/04/12 06:33:06;;;;;;;11.02;8.05;;;8.80;99.90;;;;;;4957550;28;20199;-72
2022/04/12 06:35:32;;;;;;;10.27;7.38;;;8.80;99.90;;;;;;4956276;28;20038;-71
2022/04/12 06:37:58;;;;;;;9.18;8.18;;;8.80;99.90;;;;;;4959098;28;20038;-72
2022/04/12 06:40:24;;;;;;;8.75;7.25;;;8.80;99.90;;;;;;4975278;28;20035;-71
2022/04/12 06:42:54;;;;;;;10.23;7.93;;;8.70;99.90;;;;;;4960671;28;20750;-71
2022/04/12 06:45:20;;;;;;;13.00;7.97;;;8.80;99.90;;;;;;4955037;28;20051;-71
2022/04/12 06:47:53;;;;;;;11.57;8.20;;;8.70;99.90;;;;;;4953576;28;20145;-71
2022/04/12 06:50:19;;;;;;;9.05;7.40;;;8.70;99.90;;;;;;4959757;28;20030;-71
2022/04/12 06:52:45;;;;;;;8.95;6.90;;;8.80;99.90;;;;;;4974007;28;20079;-71
2022/04/12 06:55:11;;;;;;;11.77;7.68;;;8.70;99.90;;;;;;4958632;28;20493;-71
2022/04/12 06:57:37;;;;;;;9.52;7.50;;;8.70;99.90;;;;;;4960136;28;20043;-71
2022/04/12 07:00:09;;;;;;;10.27;6.78;;;8.80;99.90;;;;;;4960210;28;20041;-71
2022/04/12 07:02:35;;;;;;;11.65;8.25;;;8.80;99.90;;;;;;4958430;28;20049;-71
2022/04/12 07:05:05;;;;;;;12.10;8.10;;;8.80;99.90;;;;;;4958469;28;20049;-71
2022/04/12 07:07:31;;;;;;;11.55;8.52;;;8.80;99.90;;;;;;4954914;28;20027;-71
2022/04/12 07:09:57;;;;;;;8.48;7.53;;;8.90;99.90;;;;;;4957609;28;20038;-71
2022/04/12 07:12:24;;;;;;;10.63;7.97;;;9.10;99.90;;;;;;4957819;28;20097;-71
2022/04/12 07:14:50;;;;;;;10.10;7.65;;;9.30;99.90;;;;;;4957392;28;20047;-71
2022/04/12 07:17:16;;;;;;;10.88;7.68;;;9.60;99.90;;;;;;4961046;28;20522;-71
2022/04/12 07:19:43;;;;;;;9.90;7.95;;;9.80;99.90;;;;;;4956415;28;20047;-71
2022/04/12 07:22:09;;;;;;;10.98;7.88;;;10.10;99.90;;;;;;4956137;28;20045;-71
2022/04/12 07:24:36;;;;;;;9.90;7.28;;;10.20;99.20;;;;;;4953062;28;20154;-71
2022/04/12 07:27:02;;;;;;;10.52;7.63;;;10.30;99.70;;;;;;4957189;28;20566;-71
2022/04/12 07:29:29;;;;;;;8.95;6.82;;;10.60;99.00;;;;;;4958017;28;20035;-71
2022/04/12 07:31:56;;;;;;;8.70;7.35;;;10.50;98.40;;;;;;4959494;28;20069;-71
2022/04/12 07:34:22;;;;;;;8.88;7.53;;;10.60;99.30;;;;;;4959165;28;20047;-71
2022/04/12 07:36:50;;;;;;;10.77;7.63;;;10.80;98.90;;;;;;4958879;28;20560;-71
2022/04/12 07:39:16;;;;;;;10.70;7.85;;;11.00;97.40;;;;;;4943806;28;20047;-71
2022/04/12 07:41:42;;;;;;;8.73;7.32;;;11.00;98.40;;;;;;4954822;28;20035;-71
2022/04/12 07:44:08;;;;;;;11.43;6.78;;;11.20;98.10;;;;;;4974993;28;20035;-71
2022/04/12 07:46:34;;;;;;;11.35;7.22;;;11.30;96.60;;;;;;4957099;28;20489;-72
2022/04/12 07:48:59;;;;;;;8.73;7.15;;;11.30;96.20;;;;;;4960777;28;20093;-72
2022/04/12 07:51:25;;;;;;;9.40;7.70;;;11.40;96.80;;;;;;4958159;28;20126;-71
2022/04/12 07:53:50;;;;;;;11.70;7.63;;;11.50;96.60;;;;;;4959363;28;20078;-72
2022/04/12 07:56:17;;;;;;;9.27;6.82;;;11.60;95.20;;;;;;4957186;28;20038;-72
2022/04/12 07:58:43;;;;;;;9.73;7.55;;;11.60;94.30;;;;;;4957043;28;20055;-71
2022/04/12 08:01:09;;;;;;;9.13;7.00;;;11.70;95.50;;;;;;4941660;28;20096;-72
2022/04/12 08:03:36;;;;;;;11.55;7.70;;;11.90;94.90;;;;;;4959030;28;20046;-71
2022/04/12 08:06:02;;;;;;;8.43;6.70;;;12.10;95.40;;;;;;4956816;28;20055;-71
2022/04/12 08:08:29;;;;;;;9.75;7.65;;;12.30;94.40;;;;;;4956472;28;20034;-72
2022/04/12 08:10:55;;;;;;;11.05;6.95;;;12.40;95.00;;;;;;4956337;28;20043;-72
2022/04/12 08:13:20;;;;;;;10.32;6.72;;;12.60;94.40;;;;;;4958492;28;20505;-72
2022/04/12 08:15:46;;;;;;;11.07;6.70;;;12.80;94.00;;;;;;4973519;28;20720;-72
2022/04/12 08:18:12;;;;;;;7.53;6.10;;;12.90;93.50;;;;;;4957458;28;20035;-72
2022/04/12 08:20:38;;;;;;;12.60;7.63;;;13.00;93.20;;;;;;4954136;28;20497;-72
2022/04/12 08:23:04;;;;;;;9.07;6.78;;;12.90;90.80;;;;;;4958001;28;20054;-72
2022/04/12 08:25:30;;;;;;;10.88;7.18;;;13.10;91.20;;;;;;4971959;28;20045;-72
2022/04/12 08:27:55;;;;;;;7.97;6.72;;;13.10;91.00;;;;;;4953612;28;20055;-72
2022/04/12 08:30:21;;;;;;;12.52;6.25;;;13.00;88.90;;;;;;4958707;28;20118;-72
2022/04/12 08:32:47;;;;;;;8.18;7.10;;;12.90;89.20;;;;;;4957452;28;20074;-72
2022/04/12 08:35:13;;;;;;;8.25;6.65;;;13.10;92.60;;;;;;4953564;28;20404;-72
2022/04/12 08:37:40;;;;;;;13.23;7.35;;;13.40;91.90;;;;;;4939042;28;20150;-72
2022/04/12 08:40:06;;;;;;;9.00;6.72;;;13.50;89.50;;;;;;4959745;28;20138;-72
2022/04/12 08:42:32;;;;;;;9.50;6.95;;;13.50;87.30;;;;;;4956909;28;20793;-72
2022/04/12 08:44:58;;;;;;;8.77;6.70;;;13.60;89.20;;;;;;4958284;28;20043;-72
2022/04/12 08:47:24;;;;;;;9.63;7.28;;;13.70;86.50;;;;;;4956289;28;20030;-72
2022/04/12 08:49:50;;;;;;;7.75;6.50;;;13.80;89.60;;;;;;4955952;28;20517;-72
2022/04/12 08:52:16;;;;;;;7.72;6.70;;;13.90;86.90;;;;;;4960246;28;20150;-72
2022/04/12 08:54:44;;;;;;;8.65;6.95;;;14.00;86.30;;;;;;4962136;28;20396;-72
2022/04/12 08:57:11;;;;;;;10.57;6.50;;;14.10;84.70;;;;;;4965220;28;20047;-72
2022/04/12 08:59:38;;;;;;;12.55;6.57;;;14.10;83.80;;;;;;4961093;28;20061;-72
2022/04/12 09:02:07;;;;;;;9.18;6.43;;;14.20;85.90;;;;;;4960208;28;20058;-72
2022/04/12 09:04:34;;;;;;;8.93;6.95;;;14.40;85.40;;;;;;4953279;28;20042;-72
2022/04/12 09:07:00;;;;;;;10.82;6.93;;;14.60;87.40;;;;;;4958728;28;20133;-72
2022/04/12 09:09:30;;;;;;;12.52;7.07;;;14.70;85.30;;;;;;4961182;28;20046;-72
2022/04/12 09:12:00;;;;;;;8.75;6.82;;;14.80;83.90;;;;;;4958586;28;20043;-72
2022/04/12 09:14:48;;;;;;;10.43;6.57;;;14.80;84.00;;;;;;4975118;28;20436;-72
2022/04/12 09:17:18;;;;;;;7.10;5.85;;;14.90;83.70;;;;;;4962686;28;20038;-73
2022/04/12 09:19:48;;;;;;;17.20;7.45;;;15.10;83.30;;;;;;4958557;28;20043;-73
2022/04/12 09:22:23;;;;;;;8.25;6.25;;;15.20;83.20;;;;;;4960352;28;20104;-72
2022/04/12 09:24:51;;;;;;;10.20;7.13;;;15.20;81.20;;;;;;4957745;28;20047;-72
2022/04/12 09:27:19;;;;;;;9.40;6.95;;;15.30;82.50;;;;;;4975657;28;20053;-72
2022/04/12 09:29:47;;;;;;;8.35;6.53;;;15.30;82.30;;;;;;4958784;28;21082;-72
2022/04/12 09:32:15;;;;;;;9.32;6.68;;;15.40;83.00;;;;;;4959366;28;21456;-72
2022/04/12 09:34:42;;;;;;;10.68;5.95;;;15.40;82.50;;;;;;4974618;28;20054;-72
2022/04/12 09:37:21;;;;;;;9.68;7.00;;;15.60;83.60;;;;;;4960585;28;20122;-72
2022/04/12 09:40:13;;;;;;;9.13;6.47;;;15.80;83.30;;;;;;4958692;28;20461;-72
2022/04/12 09:42:41;;;;;;;7.65;6.45;;;15.90;80.50;;;;;;4952000;28;20065;-72
2022/04/12 09:45:09;;;;;;;10.57;6.47;;;16.10;81.80;;;;;;4960881;28;20120;-72
2022/04/12 09:47:36;;;;;;;8.18;6.38;;;16.10;80.40;;;;;;4960102;28;20050;-72
2022/04/12 09:50:02;;;;;;;8.25;6.75;;;16.20;80.10;;;;;;4961873;28;20130;-72
2022/04/12 09:52:28;;;;;;;8.68;5.82;;;16.10;76.40;;;;;;4961048;28;20038;-72
2022/04/12 09:54:58;;;;;;;7.68;6.88;;;16.20;76.70;;;;;;4955352;28;20039;-72
2022/04/12 09:57:25;;;;;;;7.82;6.15;;;16.30;79.20;;;;;;4959495;28;20053;-72
2022/04/12 09:59:56;;;;;;;7.80;6.22;;;16.50;79.60;;;;;;4960055;28;20629;-72
2022/04/12 10:02:24;;;;;;;8.68;6.63;;;16.60;75.30;;;;;;4959792;28;20373;-72
2022/04/12 10:04:55;;;;;;;7.57;5.93;;;16.60;75.30;;;;;;4957216;28;20059;-72
2022/04/12 10:07:23;;;;;;;7.78;5.78;;;16.70;75.70;;;;;;4961555;28;20485;-72
2022/04/12 10:09:52;;;;;;;7.60;6.43;;;16.70;73.90;;;;;;4957829;28;20090;-72
2022/04/12 10:12:19;;;;;;;8.00;6.60;;;16.60;76.10;;;;;;4953801;28;20475;-72
2022/04/12 10:14:46;;;;;;;8.93;5.88;;;16.70;76.00;;;;;;4956543;28;20066;-72
2022/04/12 10:17:14;;;;;;;10.48;6.22;;;16.80;74.60;;;;;;4959347;28;20055;-72
2022/04/12 10:19:41;;;;;;;8.43;6.30;;;16.90;76.00;;;;;;4955038;28;20043;-73
2022/04/12 10:22:08;;;;;;;8.80;6.57;;;17.10;75.90;;;;;;4962220;28;20046;-73
2022/04/12 10:24:41;;;;;;;8.40;6.65;;;17.30;77.20;;;;;;4957651;28;20031;-72
2022/04/12 10:27:08;;;;;;;8.35;6.05;;;17.20;73.20;;;;;;4958638;28;20046;-72
2022/04/12 10:29:34;;;;;;;7.80;5.95;;;17.20;75.00;;;;;;4961351;28;20480;-73
2022/04/12 10:32:04;;;;;;;10.52;6.22;;;17.40;74.20;;;;;;4962921;28;20546;-73
2022/04/12 10:34:30;;;;;;;10.73;7.03;;;17.50;76.20;;;;;;4957434;28;20054;-73
2022/04/12 10:37:04;;;;;;;7.20;5.55;;;17.60;76.20;;;;;;4960787;28;20050;-72
2022/04/12 10:39:33;;;;;;;9.82;7.07;;;17.50;73.60;;;;;;4959230;28;20038;-73
2022/04/12 10:42:06;;;;;;;8.90;5.80;;;17.60;74.00;;;;;;4974127;28;20403;-73
2022/04/12 10:44:52;;;;;;;7.82;5.97;;;17.50;72.20;;;;;;4956886;28;20057;-73
2022/04/12 10:47:24;;;;;;;11.52;7.35;;;17.40;72.50;;;;;;4953837;28;20058;-73
2022/04/12 10:50:14;;;;;;;8.73;6.28;;;17.40;73.30;;;;;;4958307;28;20051;-72
2022/04/12 10:52:44;;;;;;;7.32;6.25;;;17.40;74.80;;;;;;4954508;28;20058;-72
2022/04/12 10:55:16;;;;;;;9.90;6.63;;;17.50;73.70;;;;;;4958803;28;20055;-72
2022/04/12 10:57:42;;;;;;;8.40;6.15;;;17.60;73.20;;;;;;4958230;28;20053;-72
2022/04/12 11:00:29;;;;;;;10.95;6.72;;;17.70;75.00;;;;;;4960186;28;20043;-72
2022/04/12 11:02:59;;;;;;;10.07;6.15;;;17.80;73.40;;;;;;4976791;28;20039;-72
2022/04/12 11:05:39;;;;;;;8.70;6.18;;;17.90;75.00;;;;;;4959594;28;20555;-73
2022/04/12 11:08:34;;;;;;;9.13;7.07;;;18.10;73.50;;;;;;4958170;28;20488;-72
2022/04/12 11:11:00;;;;;;;9.15;6.55;;;18.50;75.80;;;;;;4966131;28;20500;-73
2022/04/12 11:13:31;;;;;;;11.23;6.65;;;18.60;74.80;;;;;;4957494;28;20031;-73
2022/04/12 11:16:01;;;;;;;13.52;6.28;;;18.60;71.70;;;;;;4953712;28;20104;-73
2022/04/12 11:18:55;;;;;;;7.90;5.88;;;18.70;73.60;;;;;;4957037;28;20054;-72
2022/04/12 11:21:26;;;;;;;7.28;5.43;;;18.50;69.30;;;;;;4955764;28;20078;-73
2022/04/12 11:23:55;;;;;;;8.68;5.80;;;18.50;70.00;;;;;;4959397;28;20046;-73
2022/04/12 11:26:40;;;;;;;6.90;5.90;;;18.40;70.10;;;;;;4960498;28;20051;-73
2022/04/12 11:29:10;;;;;;;7.15;6.45;;;18.40;72.70;;;;;;4960840;28;20059;-73
2022/04/12 11:31:43;;;;;;;8.88;5.82;;;18.50;70.30;;;;;;4957210;28;20038;-73
2022/04/12 11:34:10;;;;;;;8.20;6.63;;;18.40;70.30;;;;;;4959200;28;20027;-73
2022/04/12 11:36:50;;;;;;;7.03;5.70;;;18.30;71.10;;;;;;4958792;28;20046;-73
2022/04/12 11:39:21;;;;;;;12.70;6.68;;;18.20;71.80;;;;;;4960247;28;20050;-72
2022/04/12 11:41:47;;;;;;;7.40;6.60;;;18.10;70.40;;;;;;4975465;28;20963;-73
2022/04/12 11:44:13;;;;;;;10.98;6.60;;;18.20;72.70;;;;;;4960578;28;20114;-73
2022/04/12 11:46:40;;;;;;;9.07;7.05;;;18.20;73.20;;;;;;4954370;28;20047;-73
2022/04/12 11:49:13;;;;;;;11.77;6.22;;;18.20;71.10;;;;;;4959664;28;20369;-74
2022/04/12 11:51:40;;;;;;;13.90;6.50;;;18.40;73.70;;;;;;4973648;28;20047;-73
2022/04/12 11:54:40;;;;;;;7.95;6.25;;;18.30;71.20;;;;;;4956551;28;20093;-73
2022/04/12 11:57:08;;;;;;;7.63;6.35;;;18.20;72.80;;;;;;4985002;28;20418;-73
2022/04/12 11:59:46;;;;;;;13.35;7.53;;;18.20;73.00;;;;;;4973175;28;20042;-73
2022/04/12 12:02:13;;;;;;;8.73;7.25;;;18.30;74.30;;;;;;4959751;28;20051;-73
2022/04/12 12:05:04;;;;;;;12.20;7.35;;;18.20;71.10;;;;;;4957331;28;20055;-73
2022/04/12 12:07:31;;;;;;;12.07;8.35;;;18.10;71.10;;;;;;4956514;28;20416;-73
2022/04/12 12:09:58;;;;;;;8.05;6.80;;;18.20;73.90;;;;;;4958028;28;20047;-73
2022/04/12 12:12:35;;;;;;;8.43;6.65;;;18.40;74.80;;;;;;4958478;28;20035;-73
2022/04/12 12:15:21;;;;;;;9.07;7.03;;;18.60;72.30;;;;;;4957883;28;20034;-73
2022/04/12 12:17:53;;;;;;;9.32;6.82;;;18.70;72.80;;;;;;4955294;28;20055;-73
2022/04/12 12:20:21;;;;;;;10.75;7.43;;;18.80;71.50;;;;;;4959421;28;20054;-74
2022/04/12 12:22:51;;;;;;;10.70;7.75;;;18.90;72.80;;;;;;4959438;28;20087;-73
2022/04/12 12:25:21;;;;;;;10.13;8.35;;;18.90;68.70;;;;;;4958832;28;20085;-73
2022/04/12 12:27:53;;;;;;;11.68;7.35;;;18.90;71.10;;;;;;4960632;28;20113;-73
2022/04/12 12:30:25;;;;;;;9.45;7.20;;;18.80;70.70;;;;;;4977140;28;20043;-73
2022/04/12 12:32:56;;;;;;;14.48;8.95;;;18.80;71.20;;;;;;4960833;28;20051;-73
2022/04/12 12:35:25;;;;;;;10.60;8.20;;;18.80;70.80;;;;;;4962342;28;20047;-73
2022/04/12 12:38:10;;;;;;;12.25;7.97;;;19.00;72.70;;;;;;4959327;28;20140;-74
2022/04/12 12:40:37;;;;;;;11.43;7.97;;;19.30;71.90;;;;;;4958235;28;20058;-73
2022/04/12 12:43:05;;;;;;;12.98;8.45;;;19.30;70.60;;;;;;4962652;28;20043;-74
2022/04/12 12:45:35;;;;;;;12.50;8.02;;;19.30;69.70;;;;;;4958084;28;20050;-73
2022/04/12 12:48:01;;;;;;;14.05;8.40;;;19.30;69.80;;;;;;4957931;28;20043;-73
2022/04/12 12:50:28;;;;;;;13.32;8.70;;;19.50;71.80;;;;;;4964247;28;20066;-73